Time;durP1;ratioP1;P1;durP2;ratioP2;P2;SDS_P1;SDS_P2;PMS_P1;PMS_P2;Temp;Humidity;BMP_temperature;BMP_pressure;BME280_temperature;BME280_humidity;BME280_pressure;Samples;Min_cycle;Max_cycle;Signal;HPM_P1;HPM_P2
2022/07/21 00:01:59;;;;;;;7.97;6.53;;;20.60;99.90;;;;;;5093667;27;20236;-52
2022/07/21 00:04:27;;;;;;;7.50;6.47;;;20.70;16.10;;;;;;5079664;27;20570;-51
2022/07/21 00:06:54;;;;;;;10.03;7.13;;;20.60;99.90;;;;;;5091966;27;20544;-52
2022/07/21 00:09:21;;;;;;;8.17;6.60;;;20.60;99.90;;;;;;5079270;28;20186;-52
2022/07/21 00:11:48;;;;;;;7.50;6.63;;;20.50;1.00;;;;;;5097244;27;20290;-52
2022/07/21 00:14:15;;;;;;;7.77;6.97;;;20.70;99.90;;;;;;5098699;27;20829;-52
2022/07/21 00:16:42;;;;;;;7.33;6.37;;;20.80;1.00;;;;;;5076288;28;20206;-51
2022/07/21 00:19:10;;;;;;;7.87;6.67;;;20.80;99.90;;;;;;5077770;27;20323;-52
2022/07/21 00:21:37;;;;;;;9.47;7.60;;;20.60;99.90;;;;;;5094233;28;20197;-52
2022/07/21 00:24:04;;;;;;;9.30;7.93;;;20.50;99.90;;;;;;5099552;28;20218;-53
2022/07/21 00:26:31;;;;;;;9.27;7.50;;;20.40;1.00;;;;;;5082013;28;20221;-51
2022/07/21 00:28:58;;;;;;;9.73;7.13;;;20.30;1.00;;;;;;5101236;27;20201;-52
2022/07/21 00:31:26;;;;;;;7.87;7.13;;;20.50;1.00;;;;;;5100243;28;20201;-51
2022/07/21 00:33:53;;;;;;;9.33;7.37;;;20.70;99.90;;;;;;5083044;27;20657;-52
2022/07/21 00:36:21;;;;;;;8.80;6.73;;;20.60;1.00;;;;;;5103648;27;20656;-52
2022/07/21 00:38:48;;;;;;;8.00;7.20;;;20.70;29.00;;;;;;5080788;28;20566;-52
2022/07/21 00:41:15;;;;;;;7.50;6.80;;;20.70;1.00;;;;;;5097158;28;20552;-52
2022/07/21 00:43:42;;;;;;;8.63;7.73;;;20.70;1.00;;;;;;5082090;28;20217;-52
2022/07/21 00:46:09;;;;;;;9.97;7.80;;;20.70;1.00;;;;;;5065535;28;20218;-51
2022/07/21 00:48:36;;;;;;;7.97;7.17;;;20.50;99.90;;;;;;5102156;28;20230;-52
2022/07/21 00:51:03;;;;;;;8.93;7.63;;;20.50;1.00;;;;;;5091202;28;20205;-52
2022/07/21 00:53:30;;;;;;;8.87;8.00;;;20.60;99.90;;;;;;5080637;28;20268;-51
2022/07/21 00:55:59;;;;;;;9.03;7.97;;;20.50;1.00;;;;;;5101123;28;20237;-52
2022/07/21 00:58:26;;;;;;;9.03;7.47;;;20.60;1.00;;;;;;5102647;28;20216;-51
2022/07/21 01:00:54;;;;;;;8.40;7.50;;;20.60;99.90;;;;;;5092082;28;20490;-52
2022/07/21 01:03:21;;;;;;;8.40;7.60;;;20.70;99.90;;;;;;5081589;28;20213;-51
2022/07/21 01:05:48;;;;;;;8.60;7.40;;;20.60;1.00;;;;;;5097016;28;20574;-53
2022/07/21 01:08:15;;;;;;;9.33;7.50;;;20.40;35.00;;;;;;5096083;28;20206;-52
2022/07/21 01:10:43;;;;;;;10.80;8.47;;;20.50;1.00;;;;;;5079334;28;20257;-51
2022/07/21 01:13:10;;;;;;;11.00;8.67;;;20.30;99.90;;;;;;5105521;28;20206;-52
2022/07/21 01:15:37;;;;;;;11.67;9.20;;;20.20;1.00;;;;;;5082595;28;20206;-51
2022/07/21 01:18:04;;;;;;;13.53;9.60;;;20.30;1.00;;;;;;5101703;28;20786;-51
2022/07/21 01:20:35;;;;;;;12.33;9.87;;;20.20;1.00;;;;;;5101071;28;20210;-52
2022/07/21 01:23:03;;;;;;;10.23;9.13;;;20.20;99.90;;;;;;5069708;28;20204;-51
2022/07/21 01:25:30;;;;;;;11.10;9.60;;;20.20;1.00;;;;;;5082061;28;20245;-52
2022/07/21 01:27:57;;;;;;;12.97;10.00;;;20.00;1.00;;;;;;5104992;28;20206;-51
2022/07/21 01:30:24;;;;;;;12.20;10.27;;;20.00;1.00;;;;;;5107452;27;20938;-52
2022/07/21 01:32:52;;;;;;;13.17;9.67;;;20.00;1.00;;;;;;5106293;27;20645;-52
2022/07/21 01:35:19;;;;;;;11.10;9.80;;;20.00;1.00;;;;;;5108431;28;20206;-51
2022/07/21 01:37:47;;;;;;;11.80;10.60;;;20.00;1.00;;;;;;5087805;28;20726;-52
2022/07/21 01:43:04;;;;;;;11.93;10.20;;;19.80;90.80;;;;;;5098314;28;20639;-52
2022/07/21 01:45:37;;;;;;;12.40;11.10;;;19.80;99.90;;;;;;5099444;27;20316;-51
2022/07/21 01:48:05;;;;;;;11.23;9.90;;;19.80;55.80;;;;;;5101623;27;20677;-50
2022/07/21 01:50:32;;;;;;;13.80;11.50;;;19.60;99.90;;;;;;5099445;27;20194;-51
2022/07/21 01:52:59;;;;;;;11.40;10.20;;;19.90;99.90;;;;;;5100616;27;20653;-52
2022/07/21 01:55:28;;;;;;;13.93;10.83;;;20.00;99.90;;;;;;5101276;27;20230;-53
2022/07/21 01:57:55;;;;;;;13.30;10.77;;;20.10;34.60;;;;;;5101475;27;20203;-52
2022/07/21 02:00:22;;;;;;;12.13;10.83;;;19.90;28.20;;;;;;5099878;27;20202;-52
2022/07/21 02:02:49;;;;;;;11.57;10.40;;;19.80;99.90;;;;;;5098299;27;20644;-52
2022/07/21 02:05:16;;;;;;;11.37;10.17;;;19.80;99.90;;;;;;5083333;27;20234;-52
2022/07/21 02:07:43;;;;;;;11.77;10.57;;;19.70;99.90;;;;;;5096169;27;20930;-52
2022/07/21 02:10:10;;;;;;;12.63;11.00;;;19.90;99.90;;;;;;5095324;27;20194;-52
2022/07/21 02:12:38;;;;;;;11.97;10.37;;;19.90;99.90;;;;;;5087742;27;20205;-52
2022/07/21 02:15:05;;;;;;;11.60;9.90;;;20.00;99.90;;;;;;5106538;28;20584;-52
2022/07/21 02:17:33;;;;;;;12.13;10.40;;;20.10;99.90;;;;;;5104279;27;20194;-52
2022/07/21 02:19:59;;;;;;;13.70;10.60;;;20.20;1.00;;;;;;5103174;27;20728;-51
2022/07/21 02:22:27;;;;;;;13.37;10.93;;;20.20;1.00;;;;;;5104941;27;20194;-51
2022/07/21 02:24:53;;;;;;;15.67;11.10;;;20.10;1.00;;;;;;5105072;27;20630;-52
2022/07/21 02:27:21;;;;;;;12.73;10.67;;;19.90;68.50;;;;;;5090018;28;20557;-52
2022/07/21 02:29:48;;;;;;;12.03;10.83;;;19.70;99.90;;;;;;5104408;28;20263;-52
2022/07/21 02:32:15;;;;;;;12.43;11.13;;;19.70;99.90;;;;;;5105473;27;20965;-52
2022/07/21 02:34:42;;;;;;;11.97;10.73;;;19.70;99.90;;;;;;5087915;28;20608;-51
2022/07/21 02:37:09;;;;;;;12.80;10.70;;;19.80;99.90;;;;;;5091537;27;20629;-51
2022/07/21 02:39:36;;;;;;;13.33;11.43;;;19.70;99.90;;;;;;5104001;27;20198;-52
2022/07/21 02:42:03;;;;;;;13.23;11.63;;;19.80;99.90;;;;;;5083246;28;20656;-53
2022/07/21 02:44:30;;;;;;;12.40;10.70;;;19.70;99.90;;;;;;5087026;27;20205;-52
2022/07/21 02:46:57;;;;;;;13.80;10.77;;;19.80;99.90;;;;;;5089233;28;20267;-52
2022/07/21 02:49:24;;;;;;;13.03;11.13;;;20.10;99.90;;;;;;5086339;28;20281;-52
2022/07/21 02:51:51;;;;;;;10.93;9.83;;;20.10;7.80;;;;;;5087696;28;20206;-51
2022/07/21 02:54:18;;;;;;;11.13;9.97;;;20.20;1.00;;;;;;5106679;27;20593;-51
2022/07/21 02:56:48;;;;;;;12.87;11.23;;;20.20;1.00;;;;;;5104469;27;20233;-52
2022/07/21 02:59:15;;;;;;;12.27;10.53;;;19.90;1.00;;;;;;5106223;28;20198;-52
2022/07/21 03:01:42;;;;;;;11.23;9.67;;;20.00;99.90;;;;;;5105640;27;20201;-51
2022/07/21 03:04:11;;;;;;;13.70;10.83;;;19.90;99.90;;;;;;5087952;27;20194;-51
2022/07/21 03:06:39;;;;;;;13.23;11.40;;;19.80;99.90;;;;;;5107769;27;20222;-52
2022/07/21 03:09:06;;;;;;;13.60;10.57;;;19.80;99.90;;;;;;5107581;27;20205;-52
2022/07/21 03:11:34;;;;;;;13.47;11.03;;;20.00;99.90;;;;;;5103627;27;20213;-51
2022/07/21 03:14:01;;;;;;;13.20;10.77;;;20.10;4.90;;;;;;5089501;27;20205;-52
2022/07/21 03:16:28;;;;;;;11.67;10.47;;;19.90;80.50;;;;;;5104602;28;20205;-51
2022/07/21 03:18:56;;;;;;;12.67;10.27;;;19.80;99.90;;;;;;5105928;28;20201;-52
2022/07/21 03:21:23;;;;;;;11.90;10.67;;;19.80;99.90;;;;;;5102658;27;20299;-52
2022/07/21 03:23:50;;;;;;;15.10;12.07;;;19.70;99.90;;;;;;5105620;27;20208;-51
2022/07/21 03:26:17;;;;;;;15.77;12.10;;;19.50;99.90;;;;;;5104351;28;20216;-52
2022/07/21 03:28:45;;;;;;;14.30;12.20;;;19.70;99.90;;;;;;5087980;28;20223;-51
2022/07/21 03:31:12;;;;;;;14.77;11.03;;;19.80;99.90;;;;;;5087718;28;20217;-51
2022/07/21 03:33:39;;;;;;;13.17;11.07;;;19.80;99.90;;;;;;5079923;27;20202;-52
2022/07/21 03:36:09;;;;;;;14.20;11.53;;;19.80;99.90;;;;;;5086037;27;20205;-52
2022/07/21 03:38:36;;;;;;;14.10;12.40;;;19.80;99.90;;;;;;5088984;27;20730;-51
2022/07/21 03:41:03;;;;;;;13.70;12.30;;;19.90;99.90;;;;;;5101604;27;20208;-52
2022/07/21 03:43:38;;;;;;;15.73;12.13;;;19.80;99.90;;;;;;5103503;27;20215;-51
2022/07/21 03:46:05;;;;;;;18.20;13.20;;;19.70;99.90;;;;;;5070463;28;20584;-52
2022/07/21 03:48:32;;;;;;;18.30;12.67;;;19.70;42.60;;;;;;5087101;28;20247;-51
2022/07/21 03:50:59;;;;;;;15.13;12.97;;;19.90;99.90;;;;;;5084790;28;20208;-51
2022/07/21 03:53:26;;;;;;;14.50;12.20;;;19.70;29.00;;;;;;5103755;27;20202;-51
2022/07/21 03:55:53;;;;;;;15.23;11.00;;;19.70;77.10;;;;;;5104947;28;20244;-52
2022/07/21 03:58:20;;;;;;;13.57;11.40;;;19.50;99.90;;;;;;5106137;27;20201;-52
2022/07/21 04:00:47;;;;;;;14.13;12.13;;;19.50;99.90;;;;;;5081486;28;20486;-52
2022/07/21 04:03:14;;;;;;;12.77;11.30;;;19.60;99.90;;;;;;5101991;27;20218;-52
2022/07/21 04:05:44;;;;;;;14.80;10.97;;;19.70;99.90;;;;;;5088473;28;20260;-50
2022/07/21 04:08:13;;;;;;;12.40;10.30;;;19.70;74.80;;;;;;5085305;28;20645;-51
2022/07/21 04:10:42;;;;;;;15.03;10.50;;;19.70;1.00;;;;;;5081845;28;21011;-52
2022/07/21 04:13:12;;;;;;;14.93;11.17;;;19.80;1.00;;;;;;5102477;27;20211;-51
2022/07/21 04:15:39;;;;;;;10.93;9.60;;;19.90;1.00;;;;;;5102541;27;20208;-51
2022/07/21 04:18:08;;;;;;;12.03;10.50;;;19.90;1.00;;;;;;5105283;28;20206;-52
2022/07/21 04:20:35;;;;;;;12.47;9.90;;;19.90;1.00;;;;;;5095953;27;20295;-52
2022/07/21 04:23:03;;;;;;;11.93;9.40;;;19.70;1.00;;;;;;5103162;27;20226;-52
2022/07/21 04:25:30;;;;;;;15.13;9.87;;;19.60;1.00;;;;;;5084235;28;20205;-52
2022/07/21 04:27:58;;;;;;;14.43;9.47;;;19.60;1.00;;;;;;5104682;27;20204;-52
2022/07/21 04:30:25;;;;;;;11.13;8.77;;;19.60;1.00;;;;;;5100343;27;20197;-52
2022/07/21 04:32:53;;;;;;;11.07;9.23;;;19.60;1.00;;;;;;5088463;28;20205;-51
2022/07/21 04:35:20;;;;;;;10.43;8.83;;;19.60;1.00;;;;;;5084574;28;20570;-52
2022/07/21 04:37:47;;;;;;;13.80;8.83;;;19.60;1.00;;;;;;5104769;27;20239;-53
2022/07/21 04:40:15;;;;;;;12.10;9.60;;;19.70;1.00;;;;;;5082903;28;20202;-52
2022/07/21 04:42:43;;;;;;;12.30;9.03;;;19.70;1.00;;;;;;5086052;28;20296;-52
2022/07/21 04:45:13;;;;;;;10.77;9.00;;;19.70;1.00;;;;;;5069894;28;20209;-51
2022/07/21 04:47:48;;;;;;;10.57;8.10;;;19.30;1.00;;;;;;5102755;28;20275;-52
2022/07/21 04:50:21;;;;;;;12.33;8.53;;;19.60;27.80;;;;;;5102358;27;20189;-52
2022/07/21 04:52:49;;;;;;;9.83;8.13;;;19.70;1.00;;;;;;5105211;28;20225;-52
2022/07/21 04:55:30;;;;;;;10.93;9.10;;;19.90;1.00;;;;;;5027303;28;20246;-52
2022/07/21 04:57:58;;;;;;;12.83;8.40;;;19.70;1.00;;;;;;5023825;28;20266;-52
2022/07/21 05:00:26;;;;;;;11.53;8.43;;;19.70;1.00;;;;;;5020535;28;20234;-52
2022/07/21 05:02:53;;;;;;;13.47;8.60;;;19.70;1.00;;;;;;5022312;28;20208;-50
2022/07/21 05:05:21;;;;;;;11.10;8.47;;;19.60;1.00;;;;;;5025049;28;20208;-52
2022/07/21 05:07:48;;;;;;;15.13;9.10;;;19.80;1.00;;;;;;5035960;28;20219;-52
2022/07/21 05:10:18;;;;;;;9.17;7.87;;;19.70;1.00;;;;;;5039399;28;20204;-53
2022/07/21 05:12:45;;;;;;;13.80;8.30;;;19.80;1.00;;;;;;5038260;28;20271;-53
2022/07/21 05:15:12;;;;;;;9.63;8.43;;;19.80;1.00;;;;;;5039308;28;20208;-51
2022/07/21 05:17:41;;;;;;;12.47;8.93;;;20.00;1.00;;;;;;5023924;28;20594;-52
2022/07/21 05:20:09;;;;;;;10.27;8.10;;;20.00;99.90;;;;;;5040176;28;20215;-52
2022/07/21 05:22:36;;;;;;;11.83;9.07;;;20.10;99.90;;;;;;5041730;28;20204;-52
2022/07/21 05:25:05;;;;;;;11.83;8.70;;;19.90;1.00;;;;;;5054657;28;20216;-52
2022/07/21 05:27:32;;;;;;;12.73;8.57;;;20.00;1.00;;;;;;5086157;28;20209;-52
2022/07/21 05:29:59;;;;;;;11.50;8.43;;;20.00;1.00;;;;;;5085671;28;20194;-51
2022/07/21 05:32:26;;;;;;;14.23;9.53;;;19.90;1.00;;;;;;5086477;28;20190;-51
2022/07/21 05:34:53;;;;;;;16.30;9.37;;;19.70;99.90;;;;;;5102291;28;20221;-52
2022/07/21 05:37:20;;;;;;;11.03;8.47;;;19.80;1.00;;;;;;5084881;28;20197;-52
2022/07/21 05:39:47;;;;;;;11.13;8.97;;;19.90;1.00;;;;;;5097538;28;20916;-52
2022/07/21 05:42:15;;;;;;;10.50;8.33;;;19.80;1.00;;;;;;5100257;28;20216;-53
2022/07/21 05:44:42;;;;;;;14.43;9.17;;;19.90;1.00;;;;;;5099770;28;20209;-51
2022/07/21 05:47:09;;;;;;;13.70;9.33;;;19.80;99.90;;;;;;5101559;28;20683;-51
2022/07/21 05:49:35;;;;;;;13.40;8.53;;;19.90;99.90;;;;;;5079265;28;20938;-51
2022/07/21 05:52:03;;;;;;;15.60;8.63;;;20.00;99.90;;;;;;5068514;28;20200;-51
2022/07/21 05:54:30;;;;;;;17.10;8.57;;;19.90;1.00;;;;;;5101196;28;20289;-51
2022/07/21 05:57:02;;;;;;;16.40;9.00;;;20.00;1.00;;;;;;5102055;28;20230;-51
2022/07/21 05:59:29;;;;;;;14.10;8.80;;;20.10;1.00;;;;;;5101017;28;20212;-51
2022/07/21 06:01:56;;;;;;;11.10;8.63;;;20.20;1.00;;;;;;5093128;28;20258;-51
2022/07/21 06:04:23;;;;;;;19.33;9.97;;;20.00;1.00;;;;;;5101107;28;20219;-50
2022/07/21 06:06:52;;;;;;;14.43;9.77;;;20.10;99.90;;;;;;5077301;28;20224;-51
2022/07/21 06:09:21;;;;;;;16.63;9.17;;;19.90;1.00;;;;;;5104054;28;20198;-51
2022/07/21 06:11:51;;;;;;;14.50;9.53;;;20.00;1.00;;;;;;5104497;28;20737;-52
2022/07/21 06:14:19;;;;;;;13.77;9.60;;;20.20;1.00;;;;;;5098339;28;20634;-51
2022/07/21 06:16:46;;;;;;;13.80;9.67;;;20.30;99.90;;;;;;5099990;28;20198;-53
2022/07/21 06:19:13;;;;;;;14.57;10.07;;;20.40;1.00;;;;;;4746869;27;10001034;-52
2022/07/21 06:21:40;;;;;;;14.50;10.07;;;20.40;99.90;;;;;;5066510;27;20195;-51
2022/07/21 06:24:13;;;;;;;12.87;9.97;;;20.50;1.00;;;;;;5100593;27;20688;-52
2022/07/21 06:26:40;;;;;;;15.60;10.37;;;20.60;99.90;;;;;;5088719;28;20205;-52
2022/07/21 06:29:08;;;;;;;16.90;10.90;;;20.60;99.90;;;;;;5085012;27;20277;-51
2022/07/21 06:31:34;;;;;;;14.33;10.20;;;20.50;1.00;;;;;;5067322;28;20194;-52
2022/07/21 06:34:02;;;;;;;17.03;11.17;;;20.60;1.00;;;;;;5104473;27;20202;-51
2022/07/21 06:36:29;;;;;;;17.60;11.03;;;20.90;1.00;;;;;;5102682;27;20253;-51
2022/07/21 06:38:56;;;;;;;15.33;11.50;;;20.80;99.90;;;;;;5104413;27;20202;-50
2022/07/21 06:41:23;;;;;;;19.10;12.90;;;20.90;1.00;;;;;;5081117;28;20198;-51
2022/07/21 06:43:50;;;;;;;14.83;10.70;;;20.90;1.00;;;;;;5100123;28;20288;-52
2022/07/21 06:46:17;;;;;;;18.87;11.83;;;21.00;99.90;;;;;;5098793;27;20236;-52
2022/07/21 06:48:45;;;;;;;17.00;12.10;;;21.20;99.90;;;;;;5098191;27;20558;-51
2022/07/21 06:51:12;;;;;;;17.37;12.47;;;21.00;99.90;;;;;;5082569;28;20214;-52
2022/07/21 06:53:39;;;;;;;19.27;13.47;;;21.10;1.00;;;;;;5082255;28;20197;-52
2022/07/21 06:56:06;;;;;;;16.57;12.00;;;21.10;1.00;;;;;;5104070;27;20226;-52
2022/07/21 06:58:34;;;;;;;15.87;11.63;;;21.10;1.00;;;;;;5098355;27;20281;-51
2022/07/21 07:01:06;;;;;;;20.57;12.90;;;21.10;99.90;;;;;;5102602;27;20229;-52
2022/07/21 07:03:34;;;;;;;15.47;12.97;;;21.10;1.00;;;;;;5102717;27;20687;-52
2022/07/21 07:06:03;;;;;;;24.20;15.70;;;20.90;99.90;;;;;;5076954;28;20753;-51
2022/07/21 07:08:31;;;;;;;22.80;14.77;;;20.80;1.00;;;;;;5104605;27;20214;-52
2022/07/21 07:10:58;;;;;;;21.83;15.33;;;20.90;1.00;;;;;;5097218;27;22885;-52
2022/07/21 07:13:25;;;;;;;21.57;15.37;;;20.90;1.00;;;;;;5104729;28;20206;-52
2022/07/21 07:16:12;;;;;;;21.40;14.20;;;20.60;92.40;;;;;;5082989;28;20206;-52
2022/07/21 07:18:39;;;;;;;21.40;15.80;;;20.70;99.90;;;;;;5076837;28;20226;-51
2022/07/21 07:21:06;;;;;;;23.63;15.77;;;20.50;1.00;;;;;;5064600;28;20210;-52
2022/07/21 07:23:38;;;;;;;23.73;15.27;;;20.40;1.00;;;;;;5101258;27;20299;-52
2022/07/21 07:26:07;;;;;;;22.73;15.80;;;20.40;1.00;;;;;;5098121;27;20204;-51
2022/07/21 07:28:35;;;;;;;25.63;17.90;;;20.30;1.00;;;;;;5101746;27;20232;-52
2022/07/21 07:31:02;;;;;;;26.87;17.50;;;20.10;99.90;;;;;;5079822;27;20266;-51
2022/07/21 07:33:29;;;;;;;24.37;16.70;;;20.30;99.90;;;;;;5093624;27;20203;-52
2022/07/21 07:35:57;;;;;;;25.50;18.73;;;20.30;99.90;;;;;;5098695;28;20198;-51
2022/07/21 07:38:24;;;;;;;29.97;18.97;;;20.10;99.90;;;;;;5075672;28;20221;-52
2022/07/21 07:40:51;;;;;;;27.83;19.23;;;20.10;99.90;;;;;;5090959;27;20205;-52
2022/07/21 07:43:19;;;;;;;29.03;19.97;;;20.10;99.90;;;;;;5094585;27;20619;-51
2022/07/21 07:45:48;;;;;;;30.43;20.80;;;19.90;99.90;;;;;;5091594;27;20664;-52
2022/07/21 07:48:16;;;;;;;26.83;18.37;;;19.80;99.90;;;;;;5085504;27;21690;-52
2022/07/21 07:50:43;;;;;;;27.87;19.10;;;20.00;99.90;;;;;;5094290;27;20210;-52
2022/07/21 07:53:11;;;;;;;31.07;19.63;;;20.20;99.90;;;;;;5096598;27;20633;-52
2022/07/21 07:55:38;;;;;;;25.63;16.23;;;20.30;99.90;;;;;;5090939;27;20224;-52
2022/07/21 07:58:05;;;;;;;19.20;13.63;;;20.30;99.90;;;;;;5091128;27;20665;-51
2022/07/21 08:00:32;;;;;;;16.73;12.00;;;20.10;99.90;;;;;;5088640;27;20201;-53
2022/07/21 08:03:20;;;;;;;19.80;12.93;;;19.70;99.90;;;;;;5095414;28;20205;-51
2022/07/21 08:05:47;;;;;;;17.27;11.63;;;19.70;99.90;;;;;;5089538;27;20205;-51
2022/07/21 08:08:16;;;;;;;15.20;11.47;;;19.90;99.90;;;;;;5093828;27;20546;-50
2022/07/21 08:10:45;;;;;;;15.60;10.63;;;20.10;99.90;;;;;;5096081;27;20195;-51
2022/07/21 08:13:17;;;;;;;15.40;11.20;;;20.00;99.90;;;;;;5092408;28;20352;-50
2022/07/21 08:15:46;;;;;;;13.77;10.80;;;19.80;99.90;;;;;;5090144;27;20206;-51
2022/07/21 08:18:14;;;;;;;14.60;10.37;;;19.90;99.90;;;;;;5080129;27;20203;-51
2022/07/21 08:20:42;;;;;;;13.37;10.70;;;20.00;99.90;;;;;;5091469;27;20214;-50
2022/07/21 08:23:09;;;;;;;14.03;10.30;;;20.20;99.90;;;;;;5090626;27;20212;-51
2022/07/21 08:25:38;;;;;;;11.77;9.77;;;20.10;99.90;;;;;;5095816;27;20296;-52
2022/07/21 08:28:05;;;;;;;13.13;10.10;;;19.80;99.90;;;;;;5074770;27;20209;-51
2022/07/21 08:30:32;;;;;;;12.60;10.50;;;19.90;99.90;;;;;;5091856;27;20205;-52
2022/07/21 08:33:00;;;;;;;11.90;9.20;;;19.90;99.90;;;;;;5096281;27;20675;-51
2022/07/21 08:35:28;;;;;;;13.43;9.63;;;19.90;99.90;;;;;;5094347;27;20198;-52
2022/07/21 08:37:59;;;;;;;11.27;9.27;;;20.10;99.90;;;;;;5094243;27;20205;-51
2022/07/21 08:40:29;;;;;;;10.13;8.97;;;20.10;99.90;;;;;;5087972;28;20926;-51
2022/07/21 08:42:56;;;;;;;9.30;8.33;;;20.10;99.90;;;;;;5092586;27;20200;-51
2022/07/21 08:45:24;;;;;;;13.60;9.63;;;19.80;99.90;;;;;;5076428;28;20201;-52
2022/07/21 08:47:56;;;;;;;13.00;9.43;;;19.80;99.90;;;;;;5077996;28;20261;-51
2022/07/21 08:50:25;;;;;;;10.70;9.67;;;19.80;99.90;;;;;;5088709;27;20868;-51
2022/07/21 08:52:52;;;;;;;12.20;9.20;;;19.80;99.90;;;;;;5094668;28;21640;-52
2022/07/21 08:55:35;;;;;;;12.23;8.97;;;19.90;99.90;;;;;;5073490;28;20221;-51
2022/07/21 08:58:04;;;;;;;11.93;8.67;;;20.10;99.90;;;;;;5095365;28;20546;-51
2022/07/21 09:00:35;;;;;;;11.60;9.83;;;19.90;99.90;;;;;;5084964;28;20228;-51
2022/07/21 09:03:24;;;;;;;11.43;9.80;;;20.00;99.90;;;;;;5091849;28;20721;-52
2022/07/21 09:06:15;;;;;;;9.63;8.63;;;19.90;99.90;;;;;;5088492;28;20205;-50
2022/07/21 09:08:47;;;;;;;10.13;9.00;;;19.60;99.90;;;;;;5091714;28;20593;-52
2022/07/21 09:11:21;;;;;;;10.90;9.37;;;19.60;99.90;;;;;;5084822;28;20219;-51
2022/07/21 09:14:06;;;;;;;10.47;9.50;;;19.70;99.90;;;;;;5093549;28;20201;-51
2022/07/21 09:16:37;;;;;;;10.03;8.50;;;19.90;99.90;;;;;;5093782;28;20641;-51
2022/07/21 09:19:06;;;;;;;10.87;9.77;;;20.20;99.90;;;;;;5092994;28;20209;-52
2022/07/21 09:21:36;;;;;;;9.07;8.17;;;20.20;99.90;;;;;;5085451;28;20781;-52
2022/07/21 09:24:12;;;;;;;8.63;7.73;;;20.20;99.90;;;;;;5093074;28;20254;-51
2022/07/21 09:26:58;;;;;;;8.87;7.83;;;20.20;99.90;;;;;;5088645;28;20552;-52
2022/07/21 09:29:26;;;;;;;7.83;7.03;;;20.00;99.90;;;;;;5092570;28;20594;-50
2022/07/21 09:31:53;;;;;;;6.93;6.10;;;20.00;99.90;;;;;;5087355;28;20288;-53
2022/07/21 09:34:20;;;;;;;6.87;6.13;;;19.60;99.90;;;;;;5078512;28;20193;-52
2022/07/21 09:36:58;;;;;;;6.97;5.27;;;19.70;99.90;;;;;;5093902;28;20603;-53
2022/07/21 09:40:11;;;;;;;5.93;4.63;;;19.40;99.90;;;;;;5093868;28;20569;-52
2022/07/21 09:42:41;;;;;;;5.83;4.47;;;19.30;99.90;;;;;;5015663;28;20208;-53
2022/07/21 09:45:11;;;;;;;6.33;4.77;;;19.30;99.90;;;;;;5018521;28;20256;-52
2022/07/21 09:47:40;;;;;;;5.33;4.70;;;19.20;99.90;;;;;;5013946;28;20252;-52
2022/07/21 09:50:09;;;;;;;5.03;4.53;;;19.30;99.90;;;;;;5013865;28;20201;-52
2022/07/21 09:52:57;;;;;;;4.60;3.43;;;19.40;99.90;;;;;;5017836;28;20262;-52
2022/07/21 09:55:25;;;;;;;3.67;2.90;;;19.30;99.90;;;;;;5018040;28;20239;-51
2022/07/21 09:57:54;;;;;;;3.30;2.93;;;19.30;99.90;;;;;;5017708;28;20240;-53
2022/07/21 10:00:21;;;;;;;3.20;2.90;;;19.20;99.90;;;;;;5019000;28;20700;-52
2022/07/21 10:02:48;;;;;;;3.17;2.87;;;19.10;99.90;;;;;;5015846;28;20628;-52
2022/07/21 10:05:20;;;;;;;4.47;2.87;;;19.10;99.90;;;;;;5019180;28;20212;-53
2022/07/21 10:08:01;;;;;;;3.10;2.90;;;19.30;99.90;;;;;;5024794;28;20213;-50
2022/07/21 10:10:28;;;;;;;3.10;2.63;;;19.30;99.90;;;;;;5024920;28;20212;-53
2022/07/21 10:13:16;;;;;;;4.60;3.37;;;19.20;99.90;;;;;;5021741;28;20209;-52
2022/07/21 10:15:46;;;;;;;3.20;2.90;;;19.40;99.90;;;;;;5034724;27;20207;-51
2022/07/21 10:18:17;;;;;;;4.33;2.93;;;19.60;99.90;;;;;;5100790;27;20288;-52
2022/07/21 10:20:48;;;;;;;4.53;3.00;;;19.40;99.90;;;;;;5102712;27;20699;-51
2022/07/21 10:23:27;;;;;;;3.67;3.37;;;19.40;99.90;;;;;;5102075;27;20567;-52
2022/07/21 10:25:54;;;;;;;4.30;2.97;;;19.50;99.90;;;;;;5100265;27;20584;-52
2022/07/21 10:28:27;;;;;;;4.37;3.13;;;19.20;99.90;;;;;;5093497;27;20228;-52
2022/07/21 10:30:59;;;;;;;3.60;2.63;;;19.40;99.90;;;;;;5091011;27;20201;-52
2022/07/21 10:33:49;;;;;;;5.00;3.03;;;19.30;99.90;;;;;;5059227;27;20608;-52
2022/07/21 10:36:36;;;;;;;5.63;3.43;;;19.10;99.90;;;;;;5081319;27;20201;-52
2022/07/21 10:39:06;;;;;;;4.83;3.43;;;19.10;99.90;;;;;;5097526;27;20213;-53
2022/07/21 10:41:39;;;;;;;5.20;4.70;;;19.10;99.90;;;;;;5092894;27;20218;-53
2022/07/21 10:44:30;;;;;;;5.20;4.63;;;19.20;99.90;;;;;;5098974;27;20197;-49
2022/07/21 10:47:07;;;;;;;7.10;4.90;;;19.20;99.90;;;;;;5094054;27;20289;-52
2022/07/21 10:49:59;;;;;;;5.73;4.20;;;19.20;99.90;;;;;;5090989;27;20246;-52
2022/07/21 10:52:39;;;;;;;8.13;5.60;;;19.50;99.90;;;;;;5077589;27;20217;-50
2022/07/21 10:55:23;;;;;;;8.13;5.90;;;19.30;99.90;;;;;;5097802;27;20251;-52
2022/07/21 10:58:14;;;;;;;5.37;4.87;;;18.90;99.90;;;;;;5101438;27;20620;-52
2022/07/21 11:00:50;;;;;;;7.47;5.27;;;18.90;99.90;;;;;;5101046;27;20208;-49
2022/07/21 11:03:20;;;;;;;7.77;5.37;;;18.90;99.90;;;;;;5099653;27;20346;-52
2022/07/21 11:06:06;;;;;;;12.73;5.47;;;18.90;99.90;;;;;;5103211;27;20233;-53
2022/07/21 11:08:41;;;;;;;7.50;5.03;;;18.80;99.90;;;;;;5089354;27;20217;-51
2022/07/21 11:11:14;;;;;;;9.30;5.10;;;19.00;99.90;;;;;;5100938;27;20206;-52
2022/07/21 11:14:21;;;;;;;5.47;4.93;;;18.90;99.90;;;;;;5100314;27;20613;-53
2022/07/21 11:16:55;;;;;;;6.67;4.73;;;18.90;99.90;;;;;;5018564;28;20209;-51
2022/07/21 11:19:39;;;;;;;8.10;5.27;;;18.80;99.90;;;;;;5090865;27;20225;-51
2022/07/21 11:22:13;;;;;;;9.63;5.47;;;18.80;99.90;;;;;;5073309;27;20673;-52
2022/07/21 11:25:03;;;;;;;7.53;5.77;;;18.90;99.90;;;;;;5092590;27;21289;-51
2022/07/21 11:27:33;;;;;;;5.97;5.37;;;18.80;99.90;;;;;;5069558;27;20198;-50
2022/07/21 11:30:09;;;;;;;8.57;5.70;;;18.80;99.90;;;;;;5092247;27;20205;-52
2022/07/21 11:32:37;;;;;;;8.20;6.33;;;18.80;99.90;;;;;;5059285;28;20237;-51
2022/07/21 11:35:06;;;;;;;7.40;5.70;;;18.90;99.90;;;;;;5095409;27;21128;-53
2022/07/21 11:37:36;;;;;;;8.90;5.87;;;18.80;99.90;;;;;;5097769;27;20201;-53
2022/07/21 11:40:16;;;;;;;9.67;6.87;;;18.80;99.90;;;;;;5079714;27;20289;-53
2022/07/21 11:42:47;;;;;;;7.60;6.03;;;18.70;99.90;;;;;;5092388;28;20202;-51
2022/07/21 11:45:15;;;;;;;7.70;5.33;;;18.70;99.90;;;;;;5075016;28;20292;-52
2022/07/21 11:47:42;;;;;;;6.70;5.60;;;18.60;99.90;;;;;;5059924;28;20226;-52
2022/07/21 11:50:18;;;;;;;8.73;6.10;;;18.60;99.90;;;;;;5076120;28;20317;-52
2022/07/21 11:52:45;;;;;;;8.50;6.10;;;18.50;99.90;;;;;;5099262;27;20194;-52
2022/07/21 11:55:12;;;;;;;6.63;6.00;;;18.50;99.90;;;;;;5097456;27;20600;-52
2022/07/21 11:57:45;;;;;;;6.17;5.57;;;18.50;99.90;;;;;;5093676;27;20237;-52
2022/07/21 12:00:14;;;;;;;7.03;5.37;;;18.70;99.90;;;;;;5088796;27;20209;-52
2022/07/21 12:02:43;;;;;;;7.27;4.80;;;18.70;99.90;;;;;;5095728;28;20207;-53
2022/07/21 12:05:13;;;;;;;5.93;5.33;;;18.60;99.90;;;;;;5092344;27;20247;-53
2022/07/21 12:07:52;;;;;;;6.70;5.30;;;18.60;99.90;;;;;;5077658;27;20195;-52
2022/07/21 12:10:25;;;;;;;5.80;5.17;;;18.70;99.90;;;;;;5087685;27;20194;-50
2022/07/21 12:13:04;;;;;;;5.40;4.90;;;18.60;99.90;;;;;;5092725;27;20326;-51
2022/07/21 12:15:34;;;;;;;6.13;5.10;;;18.50;99.90;;;;;;5098273;27;20774;-53
2022/07/21 12:18:09;;;;;;;5.70;5.10;;;18.50;99.90;;;;;;5101562;27;20218;-53
2022/07/21 12:20:42;;;;;;;6.13;5.30;;;18.50;99.90;;;;;;5098251;28;20761;-52
2022/07/21 12:23:22;;;;;;;7.30;5.93;;;18.40;99.90;;;;;;5100142;28;20206;-52
2022/07/21 12:25:50;;;;;;;6.67;5.87;;;18.50;99.90;;;;;;5080372;28;20630;-52
2022/07/21 12:28:49;;;;;;;9.27;5.47;;;18.60;99.90;;;;;;5098959;27;20244;-52
2022/07/21 12:31:21;;;;;;;7.80;5.87;;;18.70;99.90;;;;;;5094992;27;20305;-51
2022/07/21 12:33:53;;;;;;;8.67;6.23;;;18.70;99.90;;;;;;5100303;27;20594;-51
2022/07/21 12:36:42;;;;;;;7.70;6.90;;;18.80;99.90;;;;;;5099328;27;20202;-52
2022/07/21 12:42:10;;;;;;;7.87;7.17;;;18.70;99.90;;;;;;5098670;27;20631;-51
2022/07/21 12:44:39;;;;;;;8.20;7.10;;;18.50;99.90;;;;;;5083514;28;20190;-52
2022/07/21 12:47:22;;;;;;;7.73;7.03;;;18.60;99.90;;;;;;5097904;28;20333;-51
2022/07/21 12:50:05;;;;;;;8.43;7.00;;;18.60;99.90;;;;;;5082121;27;20946;-53
2022/07/21 12:52:40;;;;;;;9.07;7.80;;;18.60;99.90;;;;;;5095709;27;20201;-53
2022/07/21 12:55:08;;;;;;;9.20;7.60;;;18.80;99.90;;;;;;5097334;27;20232;-52
2022/07/21 12:57:38;;;;;;;9.87;8.87;;;18.90;99.90;;;;;;5092402;28;20598;-52
2022/07/21 13:00:06;;;;;;;8.73;7.93;;;19.00;99.90;;;;;;5092486;28;20261;-52
2022/07/21 13:02:50;;;;;;;9.37;8.37;;;18.90;99.90;;;;;;5060709;28;20219;-51